Time;durP1;ratioP1;P1;durP2;ratioP2;P2;SDS_P1;SDS_P2;PMS_P1;PMS_P2;Temp;Humidity;BMP_temperature;BMP_pressure;BME280_temperature;BME280_humidity;BME280_pressure;Samples;Min_cycle;Max_cycle;Signal;HPM_P1;HPM_P2
2023/07/24 00:00:14;;;;;;;10.05;5.07;;;17.00;56.00;;;;;;5086245;28;20434;-71
2023/07/24 00:02:40;;;;;;;8.50;5.22;;;17.00;56.00;;;;;;5086957;28;20527;-71
2023/07/24 00:05:06;;;;;;;9.32;5.20;;;17.00;57.00;;;;;;5090278;28;20493;-71
2023/07/24 00:07:31;;;;;;;10.60;5.20;;;17.00;57.20;;;;;;5090037;28;20452;-71
2023/07/24 00:09:57;;;;;;;9.85;5.68;;;16.90;58.50;;;;;;5090569;28;21105;-70
2023/07/24 00:12:23;;;;;;;10.53;5.97;;;17.00;57.90;;;;;;5090535;28;20410;-70
2023/07/24 00:14:48;;;;;;;11.23;5.82;;;16.90;58.20;;;;;;5090351;28;20774;-71
2023/07/24 00:17:14;;;;;;;8.03;5.60;;;16.90;58.80;;;;;;5090695;28;20798;-71
2023/07/24 00:19:39;;;;;;;10.37;5.97;;;16.90;59.50;;;;;;5089857;28;20409;-71
2023/07/24 00:22:05;;;;;;;8.93;5.63;;;16.90;60.10;;;;;;5090357;28;20450;-71
2023/07/24 00:24:31;;;;;;;9.93;5.67;;;16.80;60.80;;;;;;5090442;28;20402;-71
2023/07/24 00:26:57;;;;;;;10.60;5.93;;;16.80;60.60;;;;;;5090326;28;20454;-71
2023/07/24 00:29:23;;;;;;;10.88;5.68;;;16.80;61.20;;;;;;5090302;28;20402;-71
2023/07/24 00:31:49;;;;;;;8.32;5.32;;;16.80;61.40;;;;;;5071843;28;20444;-71
2023/07/24 00:34:14;;;;;;;9.63;5.50;;;16.80;61.80;;;;;;5089366;28;20407;-71
2023/07/24 00:36:40;;;;;;;8.60;5.70;;;16.80;62.50;;;;;;5089067;28;20402;-71
2023/07/24 00:39:05;;;;;;;8.77;5.28;;;16.70;62.70;;;;;;5089570;28;20406;-71
2023/07/24 00:41:31;;;;;;;10.77;5.70;;;16.70;62.60;;;;;;5088234;28;20422;-71
2023/07/24 00:43:57;;;;;;;10.65;5.50;;;16.70;62.50;;;;;;5089020;28;20421;-71
2023/07/24 00:46:24;;;;;;;8.25;5.38;;;16.70;62.80;;;;;;5088686;28;20447;-72
2023/07/24 00:48:50;;;;;;;9.43;5.80;;;16.70;63.70;;;;;;5089815;28;20406;-71
2023/07/24 00:51:16;;;;;;;10.32;5.70;;;16.70;64.10;;;;;;5089864;28;20410;-71
2023/07/24 00:53:42;;;;;;;10.18;6.68;;;16.70;64.30;;;;;;5089864;28;20398;-71
2023/07/24 00:56:08;;;;;;;10.98;5.65;;;16.60;64.60;;;;;;5071718;28;20409;-71
2023/07/24 00:58:37;;;;;;;10.25;6.10;;;16.60;65.00;;;;;;5089901;28;20398;-71
2023/07/24 01:01:03;;;;;;;9.00;5.90;;;16.60;65.10;;;;;;5077907;28;20441;-71
2023/07/24 01:03:34;;;;;;;11.57;6.07;;;16.60;65.10;;;;;;5089799;28;20402;-71
2023/07/24 01:06:02;;;;;;;9.80;5.72;;;16.60;65.80;;;;;;5088970;28;20402;-71
2023/07/24 01:08:28;;;;;;;10.07;5.97;;;16.60;65.90;;;;;;5090008;28;20421;-72
2023/07/24 01:10:58;;;;;;;10.73;5.97;;;16.60;65.90;;;;;;5083316;28;20410;-72
2023/07/24 01:13:28;;;;;;;9.73;6.20;;;16.60;66.90;;;;;;5071486;28;20407;-71
2023/07/24 01:16:01;;;;;;;11.15;6.18;;;16.60;67.10;;;;;;5089140;28;20513;-71
2023/07/24 01:18:29;;;;;;;9.88;6.25;;;16.50;68.00;;;;;;5070814;28;20509;-71
2023/07/24 01:20:57;;;;;;;9.70;6.32;;;16.50;68.40;;;;;;5088955;28;20428;-72
2023/07/24 01:23:53;;;;;;;14.00;6.57;;;16.50;68.70;;;;;;5071246;28;20760;-71
2023/07/24 01:26:20;;;;;;;11.70;6.85;;;16.50;69.30;;;;;;5081816;28;20556;-72
2023/07/24 01:28:46;;;;;;;14.73;6.85;;;16.40;69.80;;;;;;5088869;28;20501;-72
2023/07/24 01:31:12;;;;;;;11.13;5.97;;;16.40;70.20;;;;;;5084962;28;21230;-72
2023/07/24 01:33:38;;;;;;;13.33;7.13;;;16.40;70.70;;;;;;5070765;28;20410;-72
2023/07/24 01:36:05;;;;;;;9.67;6.20;;;16.40;71.10;;;;;;5089017;28;20451;-71
2023/07/24 01:38:33;;;;;;;12.10;6.68;;;16.40;71.60;;;;;;5088272;28;20895;-72
2023/07/24 01:40:59;;;;;;;11.88;6.93;;;16.40;71.90;;;;;;5088155;28;20421;-72
2023/07/24 01:43:27;;;;;;;11.27;7.13;;;16.40;72.40;;;;;;5088844;28;20903;-72
2023/07/24 01:45:53;;;;;;;13.65;6.97;;;16.40;72.10;;;;;;5088360;28;20405;-72
2023/07/24 01:48:18;;;;;;;11.17;6.80;;;16.30;72.60;;;;;;5088148;28;20467;-72
2023/07/24 01:50:44;;;;;;;14.25;7.45;;;16.40;72.90;;;;;;5088250;28;20398;-72
2023/07/24 01:53:10;;;;;;;10.77;7.03;;;16.40;73.30;;;;;;5088275;28;20405;-72
2023/07/24 01:55:35;;;;;;;12.77;7.13;;;16.30;73.00;;;;;;5088381;28;20436;-72
2023/07/24 01:58:01;;;;;;;12.00;7.20;;;16.30;73.50;;;;;;5088235;28;20976;-72
2023/07/24 02:00:26;;;;;;;13.32;7.35;;;16.30;73.80;;;;;;5087208;28;20453;-72
2023/07/24 02:02:52;;;;;;;13.33;7.97;;;16.30;74.10;;;;;;5087557;28;20401;-72
2023/07/24 02:05:18;;;;;;;13.67;7.67;;;16.30;74.40;;;;;;5088670;28;20843;-72
2023/07/24 02:07:43;;;;;;;14.63;8.15;;;16.20;74.60;;;;;;5069743;28;20432;-72
2023/07/24 02:10:09;;;;;;;12.43;8.10;;;16.20;75.20;;;;;;5088822;28;20398;-72
2023/07/24 02:12:35;;;;;;;13.48;7.68;;;16.20;75.20;;;;;;5069965;28;20476;-72
2023/07/24 02:15:01;;;;;;;14.27;8.80;;;16.20;75.60;;;;;;5088359;28;20410;-72
2023/07/24 02:17:27;;;;;;;13.40;9.03;;;16.20;75.60;;;;;;5088126;28;20467;-72
2023/07/24 02:19:52;;;;;;;14.02;8.93;;;16.20;75.90;;;;;;5079233;28;20416;-72
2023/07/24 02:22:18;;;;;;;12.93;9.43;;;16.30;76.30;;;;;;5088054;28;20398;-72
2023/07/24 02:24:44;;;;;;;14.53;8.97;;;16.30;76.60;;;;;;5088030;28;20405;-72
2023/07/24 02:27:14;;;;;;;14.63;9.52;;;16.30;76.80;;;;;;5087147;28;20406;-72
2023/07/24 02:29:39;;;;;;;16.27;10.02;;;16.30;77.90;;;;;;5085555;28;20961;-71
2023/07/24 02:32:05;;;;;;;14.80;9.87;;;16.40;78.30;;;;;;5085609;28;20402;-72
2023/07/24 02:34:31;;;;;;;12.77;9.10;;;16.40;77.60;;;;;;5085665;28;20408;-72
2023/07/24 02:36:56;;;;;;;14.50;9.67;;;16.50;78.20;;;;;;5085123;28;20437;-72
2023/07/24 02:39:22;;;;;;;16.02;9.95;;;16.50;78.50;;;;;;5086596;28;20402;-71
2023/07/24 02:41:49;;;;;;;14.50;10.20;;;16.50;78.50;;;;;;5086680;28;20505;-71
2023/07/24 02:44:14;;;;;;;16.17;10.37;;;16.60;78.60;;;;;;5086793;28;20455;-71
2023/07/24 02:46:40;;;;;;;15.52;10.43;;;16.60;78.50;;;;;;5086708;28;20402;-71
2023/07/24 02:49:06;;;;;;;18.30;10.60;;;16.60;78.20;;;;;;5068840;28;20830;-72
2023/07/24 02:51:31;;;;;;;14.57;11.00;;;16.50;78.40;;;;;;5087064;28;20422;-71
2023/07/24 02:53:57;;;;;;;16.07;11.10;;;16.50;78.60;;;;;;5086890;28;20401;-71
2023/07/24 02:56:23;;;;;;;16.25;11.35;;;16.60;78.80;;;;;;5083172;28;20469;-71
2023/07/24 02:58:48;;;;;;;16.53;11.80;;;16.60;78.90;;;;;;5068950;28;20829;-71
2023/07/24 03:01:14;;;;;;;15.57;11.40;;;16.50;79.30;;;;;;5085898;28;20474;-71
2023/07/24 03:03:40;;;;;;;16.75;11.20;;;16.60;79.40;;;;;;5086984;28;20451;-71
2023/07/24 03:06:06;;;;;;;20.08;11.80;;;16.60;79.60;;;;;;5068886;28;20957;-71
2023/07/24 03:08:32;;;;;;;17.67;11.70;;;16.60;79.90;;;;;;5086891;28;20398;-71
2023/07/24 03:10:58;;;;;;;16.07;11.50;;;16.60;80.00;;;;;;5081581;28;20414;-71
2023/07/24 03:13:24;;;;;;;16.23;11.75;;;16.60;80.30;;;;;;5079292;28;20398;-72
2023/07/24 03:15:57;;;;;;;15.07;11.65;;;16.60;80.60;;;;;;5068379;28;20508;-72
2023/07/24 03:18:23;;;;;;;16.75;11.68;;;16.60;81.30;;;;;;5087172;28;20818;-72
2023/07/24 03:20:49;;;;;;;16.85;11.70;;;16.70;80.80;;;;;;5085158;28;20418;-72
2023/07/24 03:23:15;;;;;;;17.43;11.97;;;16.70;80.90;;;;;;5086398;28;20834;-72
2023/07/24 03:25:40;;;;;;;14.65;11.20;;;16.70;81.10;;;;;;5086569;28;20452;-72
2023/07/24 03:28:06;;;;;;;17.70;11.17;;;16.80;81.20;;;;;;5086500;28;20503;-72
2023/07/24 03:30:32;;;;;;;17.05;11.43;;;16.80;81.20;;;;;;5086238;28;20785;-72
2023/07/24 03:32:57;;;;;;;16.43;11.67;;;16.80;81.20;;;;;;5086561;28;20883;-72
2023/07/24 03:35:24;;;;;;;16.20;10.90;;;16.80;81.40;;;;;;5085962;28;20467;-72
2023/07/24 03:37:49;;;;;;;16.45;11.18;;;16.80;81.60;;;;;;5101915;28;20394;-72
2023/07/24 03:40:15;;;;;;;14.63;10.97;;;16.80;81.60;;;;;;5090091;28;20509;-72
2023/07/24 03:42:41;;;;;;;15.13;11.18;;;16.80;81.80;;;;;;5089848;28;20406;-72
2023/07/24 03:45:07;;;;;;;14.57;10.27;;;16.80;81.60;;;;;;5071850;28;20409;-72
2023/07/24 03:47:33;;;;;;;14.68;10.13;;;16.80;81.50;;;;;;5072362;28;20783;-72
2023/07/24 03:49:59;;;;;;;14.18;10.27;;;16.90;81.90;;;;;;5090083;28;20406;-72
2023/07/24 03:52:24;;;;;;;13.63;10.13;;;16.90;81.80;;;;;;5090255;28;20401;-72
2023/07/24 03:54:51;;;;;;;13.13;9.63;;;16.90;81.90;;;;;;5089206;28;20436;-72
2023/07/24 03:57:17;;;;;;;13.43;9.60;;;16.90;81.90;;;;;;5090441;28;20441;-72
2023/07/24 03:59:42;;;;;;;13.93;9.38;;;16.90;82.00;;;;;;5089973;28;20736;-72
2023/07/24 04:02:08;;;;;;;13.47;9.60;;;16.90;81.90;;;;;;5090297;28;20402;-72
2023/07/24 04:04:33;;;;;;;14.10;9.38;;;16.90;81.90;;;;;;5089157;28;20520;-72
2023/07/24 04:06:59;;;;;;;13.07;8.97;;;16.90;82.00;;;;;;5089706;28;20402;-72
2023/07/24 04:09:25;;;;;;;14.15;8.88;;;17.00;81.90;;;;;;5090265;28;20399;-72
2023/07/24 04:11:50;;;;;;;11.43;8.90;;;17.00;81.80;;;;;;5090389;28;20876;-72
2023/07/24 04:14:16;;;;;;;13.03;8.80;;;17.00;81.90;;;;;;5090573;28;20405;-72
2023/07/24 04:16:42;;;;;;;11.25;8.65;;;17.00;81.80;;;;;;5089903;28;20463;-72
2023/07/24 04:19:08;;;;;;;12.68;8.30;;;17.00;81.80;;;;;;5084274;28;20460;-72
2023/07/24 04:21:34;;;;;;;14.07;8.80;;;17.00;81.90;;;;;;5069385;28;20469;-72
2023/07/24 04:23:59;;;;;;;13.02;8.52;;;17.00;81.80;;;;;;5088796;28;20764;-71
2023/07/24 04:26:25;;;;;;;11.40;8.67;;;17.00;81.70;;;;;;5090585;28;20409;-72
2023/07/24 04:28:50;;;;;;;13.73;8.70;;;17.10;81.80;;;;;;5072254;28;20408;-72
2023/07/24 04:31:16;;;;;;;12.32;8.02;;;17.10;82.00;;;;;;5089799;28;20413;-72
2023/07/24 04:33:42;;;;;;;13.40;8.53;;;17.10;81.90;;;;;;5090407;28;20394;-72
2023/07/24 04:36:07;;;;;;;11.00;8.40;;;17.10;81.70;;;;;;5072270;28;20442;-72
2023/07/24 04:38:33;;;;;;;12.23;8.40;;;17.10;81.80;;;;;;5090222;28;20394;-72
2023/07/24 04:41:01;;;;;;;12.07;8.30;;;17.10;81.70;;;;;;5079416;28;20785;-71
2023/07/24 04:43:27;;;;;;;12.90;8.23;;;17.10;81.70;;;;;;5089957;28;20416;-72
2023/07/24 04:45:52;;;;;;;11.98;8.70;;;17.10;81.80;;;;;;5089880;28;20386;-72
2023/07/24 04:48:18;;;;;;;11.37;8.00;;;17.10;81.80;;;;;;5090042;28;20417;-72
2023/07/24 04:50:44;;;;;;;11.82;8.40;;;17.20;81.70;;;;;;5089114;28;20404;-72
2023/07/24 04:53:09;;;;;;;10.73;8.60;;;17.10;81.90;;;;;;5089592;28;20402;-72
2023/07/24 04:55:35;;;;;;;11.23;8.43;;;17.10;81.90;;;;;;5054537;28;20437;-71
2023/07/24 04:58:00;;;;;;;10.98;8.55;;;17.10;82.00;;;;;;5087595;28;20457;-71
2023/07/24 05:00:26;;;;;;;12.90;8.90;;;17.10;82.10;;;;;;5090053;28;20430;-71
2023/07/24 05:02:52;;;;;;;12.50;9.32;;;17.20;82.30;;;;;;5089461;28;20779;-71
2023/07/24 05:05:17;;;;;;;12.60;9.20;;;17.20;82.30;;;;;;5071551;28;20824;-71
2023/07/24 05:07:43;;;;;;;12.98;10.05;;;17.20;82.40;;;;;;5088590;28;20888;-71
2023/07/24 05:10:09;;;;;;;13.13;9.57;;;17.20;82.40;;;;;;5089116;28;21012;-71
2023/07/24 05:12:35;;;;;;;13.17;9.50;;;17.20;82.40;;;;;;5071595;28;20481;-71
2023/07/24 05:15:00;;;;;;;14.38;10.07;;;17.20;82.30;;;;;;5071360;28;20406;-71
2023/07/24 05:17:26;;;;;;;13.40;9.73;;;17.20;82.30;;;;;;5087969;28;20398;-71
2023/07/24 05:19:52;;;;;;;12.53;9.70;;;17.20;82.40;;;;;;5088674;28;20462;-70
2023/07/24 05:22:17;;;;;;;13.60;10.33;;;17.30;82.60;;;;;;5088494;28;20445;-70
2023/07/24 05:24:43;;;;;;;13.82;9.80;;;17.30;82.80;;;;;;5088129;28;20753;-71
2023/07/24 05:27:08;;;;;;;13.83;9.80;;;17.30;82.40;;;;;;5087774;28;20440;-70
2023/07/24 05:29:34;;;;;;;13.87;10.30;;;17.30;82.50;;;;;;5088080;28;20468;-70
2023/07/24 05:31:59;;;;;;;12.40;9.30;;;17.30;82.50;;;;;;5087756;28;20406;-71
2023/07/24 05:34:25;;;;;;;12.90;9.90;;;17.40;82.60;;;;;;5086696;28;20414;-71
2023/07/24 05:36:51;;;;;;;12.10;9.23;;;17.40;82.60;;;;;;5087849;28;20429;-71
2023/07/24 05:39:17;;;;;;;12.13;9.23;;;17.40;82.60;;;;;;5088327;28;20777;-70
2023/07/24 05:41:42;;;;;;;13.20;9.57;;;17.40;82.10;;;;;;5065858;28;20433;-70
2023/07/24 05:44:08;;;;;;;12.80;10.27;;;17.40;82.20;;;;;;5087535;28;20440;-69
2023/07/24 05:46:33;;;;;;;11.20;9.18;;;17.40;82.30;;;;;;5087817;28;20410;-70
2023/07/24 05:49:01;;;;;;;14.18;9.50;;;17.50;82.40;;;;;;5087781;28;20428;-71
2023/07/24 05:51:27;;;;;;;12.93;9.20;;;17.50;82.70;;;;;;5087774;28;20509;-70
2023/07/24 05:53:52;;;;;;;12.10;9.10;;;17.50;82.50;;;;;;5070076;28;20799;-71
2023/07/24 05:56:18;;;;;;;13.27;9.50;;;17.60;82.30;;;;;;5087744;28;20516;-70
2023/07/24 05:58:43;;;;;;;11.67;9.47;;;17.60;82.20;;;;;;5069695;28;20433;-71
2023/07/24 06:01:10;;;;;;;12.05;9.13;;;17.60;81.90;;;;;;5086510;28;20429;-70
2023/07/24 06:03:35;;;;;;;11.73;8.85;;;17.70;81.20;;;;;;5069115;28;20445;-70
2023/07/24 06:06:01;;;;;;;11.73;8.60;;;17.70;81.30;;;;;;5087376;28;20445;-71
2023/07/24 06:08:27;;;;;;;10.90;8.95;;;17.70;81.00;;;;;;5069481;28;20456;-71
2023/07/24 06:10:52;;;;;;;11.30;8.80;;;17.80;80.90;;;;;;5087037;28;20451;-71
2023/07/24 06:13:19;;;;;;;12.52;8.20;;;17.80;80.90;;;;;;5087913;28;20842;-71
2023/07/24 06:15:46;;;;;;;13.50;9.13;;;17.80;80.80;;;;;;5087891;28;20412;-71
2023/07/24 06:18:12;;;;;;;12.60;9.02;;;17.90;80.60;;;;;;5087505;28;20398;-71
2023/07/24 06:20:38;;;;;;;11.80;9.00;;;17.90;80.50;;;;;;5087851;28;20788;-71
2023/07/24 06:23:03;;;;;;;11.50;8.97;;;17.90;80.30;;;;;;5070220;28;20488;-71
2023/07/24 06:25:31;;;;;;;11.77;9.13;;;17.90;80.40;;;;;;5088126;28;20424;-71
2023/07/24 06:27:57;;;;;;;15.05;9.43;;;17.90;80.70;;;;;;5087738;28;20414;-71
2023/07/24 06:30:22;;;;;;;13.37;9.13;;;17.80;80.70;;;;;;5070225;28;20725;-71
2023/07/24 06:32:48;;;;;;;10.90;8.77;;;17.80;80.50;;;;;;5087632;28;20924;-71
2023/07/24 06:35:14;;;;;;;14.20;8.90;;;17.90;81.20;;;;;;5084645;28;20421;-71
2023/07/24 06:37:39;;;;;;;11.18;9.07;;;18.00;81.90;;;;;;5088215;28;20409;-71
2023/07/24 06:40:07;;;;;;;12.18;8.68;;;18.10;82.50;;;;;;5087523;28;20824;-71
2023/07/24 06:42:32;;;;;;;11.60;8.77;;;18.20;82.00;;;;;;5087304;28;20416;-71
2023/07/24 06:44:58;;;;;;;12.98;8.88;;;18.20;82.40;;;;;;5087324;28;20405;-71
2023/07/24 06:47:25;;;;;;;11.80;8.83;;;18.20;83.90;;;;;;5087317;28;20406;-71
2023/07/24 06:49:50;;;;;;;13.07;9.13;;;18.30;84.60;;;;;;5087173;28;20759;-72
2023/07/24 06:52:16;;;;;;;12.67;9.17;;;18.30;83.60;;;;;;5069886;28;20405;-71
2023/07/24 06:54:41;;;;;;;11.47;8.80;;;18.40;84.60;;;;;;5087014;28;20406;-71
2023/07/24 06:57:07;;;;;;;11.27;8.50;;;18.40;84.10;;;;;;5087600;28;20466;-71
2023/07/24 06:59:33;;;;;;;15.57;8.67;;;18.50;90.50;;;;;;5087267;28;20406;-71
2023/07/24 07:01:58;;;;;;;12.70;8.95;;;18.50;90.20;;;;;;5069277;28;20434;-71
2023/07/24 07:04:24;;;;;;;10.03;8.40;;;18.60;92.00;;;;;;5069607;28;20544;-71
2023/07/24 07:06:50;;;;;;;10.00;8.03;;;18.60;95.90;;;;;;5069553;28;20401;-70
2023/07/24 07:09:15;;;;;;;13.20;8.38;;;18.60;99.80;;;;;;5086875;28;20394;-71
2023/07/24 07:11:43;;;;;;;11.87;8.27;;;18.70;99.40;;;;;;5086658;28;20394;-71
2023/07/24 07:14:08;;;;;;;10.93;7.97;;;18.70;99.90;;;;;;5071882;28;20487;-71
2023/07/24 07:16:35;;;;;;;10.23;7.70;;;18.70;99.90;;;;;;5090822;28;20397;-72
2023/07/24 07:19:00;;;;;;;10.57;7.72;;;18.70;99.90;;;;;;5089534;28;20405;-71
2023/07/24 07:21:26;;;;;;;11.53;7.87;;;18.70;99.90;;;;;;5090433;28;20418;-71
2023/07/24 07:23:51;;;;;;;12.90;8.15;;;18.70;99.90;;;;;;5091035;28;20779;-71
2023/07/24 07:26:17;;;;;;;14.23;8.20;;;18.90;99.90;;;;;;5090712;28;20512;-71
2023/07/24 07:28:44;;;;;;;11.23;7.63;;;19.00;99.90;;;;;;5090697;28;20394;-72
2023/07/24 07:31:11;;;;;;;11.63;7.80;;;19.00;99.90;;;;;;5090237;28;20535;-71
2023/07/24 07:33:36;;;;;;;16.92;8.10;;;19.10;99.90;;;;;;5090277;28;20775;-71
2023/07/24 07:36:03;;;;;;;11.77;7.33;;;19.20;99.90;;;;;;5090512;28;20402;-71
2023/07/24 07:38:29;;;;;;;11.98;7.35;;;19.20;99.90;;;;;;5090230;28;20887;-71
2023/07/24 07:40:55;;;;;;;15.23;8.30;;;19.30;99.90;;;;;;5089766;28;20421;-71
2023/07/24 07:43:21;;;;;;;10.85;7.60;;;19.30;99.90;;;;;;5090658;28;20539;-71
2023/07/24 07:45:47;;;;;;;10.47;7.77;;;19.30;99.90;;;;;;5090217;28;21242;-72
2023/07/24 07:48:13;;;;;;;10.50;7.75;;;19.20;99.90;;;;;;5090561;28;20394;-70
2023/07/24 07:50:38;;;;;;;12.60;8.45;;;19.10;99.90;;;;;;5090389;28;20404;-71
2023/07/24 07:53:04;;;;;;;11.80;7.97;;;19.10;99.90;;;;;;5086157;28;20402;-71
2023/07/24 07:55:29;;;;;;;11.10;7.63;;;19.10;99.90;;;;;;5090183;28;20751;-71
2023/07/24 07:57:55;;;;;;;11.05;7.50;;;19.20;99.90;;;;;;5090267;28;20443;-71
2023/07/24 08:00:21;;;;;;;12.17;7.40;;;19.10;99.90;;;;;;5072064;28;21024;-72
2023/07/24 08:02:47;;;;;;;12.27;7.60;;;19.20;99.90;;;;;;5089603;28;20394;-71
2023/07/24 08:05:12;;;;;;;12.33;7.33;;;19.20;99.90;;;;;;5089410;28;20425;-71
2023/07/24 08:07:38;;;;;;;10.38;7.10;;;19.30;99.90;;;;;;5090157;28;20405;-71
2023/07/24 08:10:04;;;;;;;11.83;7.17;;;19.30;99.90;;;;;;5089689;28;20748;-71
2023/07/24 08:12:29;;;;;;;11.80;7.47;;;19.40;99.90;;;;;;5089568;28;20847;-71
2023/07/24 08:14:58;;;;;;;12.83;8.40;;;19.40;99.90;;;;;;5089449;28;20471;-72
2023/07/24 08:17:23;;;;;;;13.47;8.70;;;19.40;99.90;;;;;;5062423;28;20436;-70
2023/07/24 08:19:49;;;;;;;16.27;8.90;;;19.50;99.90;;;;;;5089441;28;20787;-71
2023/07/24 08:22:15;;;;;;;13.87;8.77;;;19.40;99.90;;;;;;5090378;28;20405;-71
2023/07/24 08:24:40;;;;;;;13.80;8.70;;;19.50;99.90;;;;;;5089560;28;20408;-71
2023/07/24 08:27:06;;;;;;;12.80;8.23;;;19.50;99.90;;;;;;5090067;28;20398;-71
2023/07/24 08:29:33;;;;;;;13.73;7.90;;;19.50;99.90;;;;;;5090418;28;20397;-72
2023/07/24 08:31:58;;;;;;;12.30;8.23;;;19.50;99.90;;;;;;5089699;28;20806;-71
2023/07/24 08:34:24;;;;;;;12.50;7.80;;;19.50;99.90;;;;;;5090137;28;20397;-71
2023/07/24 08:36:50;;;;;;;11.63;7.43;;;19.60;99.90;;;;;;5071715;28;20409;-71
2023/07/24 08:39:15;;;;;;;13.57;8.10;;;19.60;99.90;;;;;;5089792;28;20398;-72
2023/07/24 08:41:41;;;;;;;11.52;7.93;;;19.60;99.90;;;;;;5071639;28;20465;-71
2023/07/24 08:44:10;;;;;;;13.40;8.00;;;19.60;99.90;;;;;;5090478;28;20394;-71
2023/07/24 08:46:41;;;;;;;12.52;7.97;;;19.60;99.90;;;;;;5089758;28;20800;-71
2023/07/24 08:49:11;;;;;;;12.07;7.93;;;19.60;99.90;;;;;;5090019;28;20402;-71
2023/07/24 08:51:37;;;;;;;14.35;7.88;;;19.60;99.90;;;;;;5089770;28;20394;-71
2023/07/24 08:54:04;;;;;;;13.30;7.87;;;19.60;99.90;;;;;;5070969;28;20402;-71
2023/07/24 08:56:30;;;;;;;11.40;7.60;;;19.60;99.90;;;;;;5089985;28;20408;-72
2023/07/24 08:58:56;;;;;;;10.97;7.87;;;19.60;99.90;;;;;;5089947;28;20903;-72
2023/07/24 09:01:21;;;;;;;13.30;7.22;;;19.60;99.90;;;;;;5089825;28;20765;-72
2023/07/24 09:03:47;;;;;;;14.77;7.87;;;19.50;99.90;;;;;;5089293;28;20809;-72
2023/07/24 09:06:13;;;;;;;11.90;6.80;;;19.60;99.90;;;;;;5089260;28;20429;-72
2023/07/24 09:08:40;;;;;;;12.00;7.00;;;19.60;99.90;;;;;;5071545;28;20428;-72
2023/07/24 09:11:07;;;;;;;15.75;7.65;;;19.60;99.90;;;;;;5071165;28;20398;-72
2023/07/24 09:13:35;;;;;;;13.73;7.27;;;19.70;99.90;;;;;;5089564;28;20401;-71
2023/07/24 09:16:01;;;;;;;10.07;6.45;;;19.70;99.90;;;;;;5089202;28;20406;-72
2023/07/24 09:18:37;;;;;;;11.27;5.72;;;19.80;99.90;;;;;;5089389;28;20398;-72
2023/07/24 09:21:03;;;;;;;12.60;6.30;;;19.90;99.90;;;;;;5080804;28;20428;-72
2023/07/24 09:23:29;;;;;;;10.47;5.87;;;19.80;99.90;;;;;;5089054;28;20979;-72
2023/07/24 09:25:54;;;;;;;11.37;6.10;;;19.80;99.90;;;;;;5089649;28;20434;-72
2023/07/24 09:28:23;;;;;;;12.18;6.05;;;19.80;99.90;;;;;;5089090;28;20398;-72
2023/07/24 09:30:53;;;;;;;10.45;6.30;;;19.90;99.90;;;;;;5089352;28;20401;-72
2023/07/24 09:33:19;;;;;;;10.02;5.82;;;20.00;99.90;;;;;;5089343;28;20496;-72
2023/07/24 09:35:45;;;;;;;12.98;6.05;;;20.00;99.90;;;;;;5089544;28;20398;-72
2023/07/24 09:38:11;;;;;;;9.93;6.07;;;20.10;99.90;;;;;;5089015;28;20424;-71
2023/07/24 09:40:45;;;;;;;10.10;6.30;;;20.20;99.90;;;;;;5070772;28;21080;-71
2023/07/24 09:43:27;;;;;;;11.80;5.87;;;20.20;99.90;;;;;;5088639;28;20421;-72
2023/07/24 09:45:54;;;;;;;11.10;6.25;;;20.30;99.90;;;;;;5089037;28;20410;-71
2023/07/24 09:48:21;;;;;;;9.90;5.97;;;20.40;99.90;;;;;;5070285;28;20911;-71
2023/07/24 09:50:49;;;;;;;10.27;6.27;;;20.50;99.90;;;;;;5088363;28;20869;-71
2023/07/24 09:53:58;;;;;;;11.60;5.78;;;20.60;99.90;;;;;;5088880;28;20483;-71
2023/07/24 09:56:25;;;;;;;11.07;6.53;;;20.90;99.90;;;;;;5047463;28;20413;-71
2023/07/24 09:58:54;;;;;;;11.43;6.57;;;21.30;99.90;;;;;;5088487;28;20398;-71
2023/07/24 10:01:21;;;;;;;12.88;7.05;;;21.50;99.90;;;;;;5087832;28;20426;-71
2023/07/24 10:03:48;;;;;;;12.53;6.50;;;21.40;99.90;;;;;;5088164;28;20921;-71
2023/07/24 10:06:16;;;;;;;10.57;6.00;;;21.30;99.90;;;;;;5089065;28;20428;-71
2023/07/24 10:08:42;;;;;;;12.80;6.82;;;21.20;99.90;;;;;;5088376;28;20421;-72
2023/07/24 10:11:10;;;;;;;12.75;7.05;;;21.10;99.90;;;;;;5052685;28;20414;-72
2023/07/24 10:13:37;;;;;;;12.90;6.93;;;21.30;99.90;;;;;;5088239;28;20400;-72
2023/07/24 10:16:06;;;;;;;12.60;7.43;;;21.60;99.90;;;;;;5070035;28;20524;-72
2023/07/24 10:18:33;;;;;;;14.43;8.40;;;21.90;99.90;;;;;;5069617;28;20402;-71
2023/07/24 10:21:03;;;;;;;14.45;8.68;;;21.90;99.90;;;;;;5078329;28;20859;-71
2023/07/24 10:23:29;;;;;;;13.15;8.10;;;21.90;99.90;;;;;;5069077;28;20405;-71
2023/07/24 10:25:55;;;;;;;11.20;7.47;;;22.00;99.90;;;;;;5088026;28;20401;-71
2023/07/24 10:28:31;;;;;;;13.07;7.88;;;22.10;99.90;;;;;;5087973;28;20767;-71
2023/07/24 10:30:57;;;;;;;10.27;7.10;;;22.00;99.90;;;;;;5069683;28;20406;-72
2023/07/24 10:33:22;;;;;;;9.57;6.85;;;21.90;99.90;;;;;;5088038;28;20405;-71
2023/07/24 10:35:52;;;;;;;12.25;7.57;;;21.80;99.90;;;;;;5087653;28;20914;-71
2023/07/24 10:38:18;;;;;;;11.60;7.13;;;22.00;99.90;;;;;;5081940;28;20510;-72
2023/07/24 10:40:51;;;;;;;9.52;6.50;;;22.50;99.90;;;;;;5087618;28;20425;-71
2023/07/24 10:43:24;;;;;;;9.13;5.37;;;23.00;99.90;;;;;;5087696;28;20419;-72
2023/07/24 10:45:51;;;;;;;9.00;5.43;;;23.60;99.90;;;;;;5087820;28;20402;-72
2023/07/24 10:48:18;;;;;;;8.65;5.63;;;23.80;99.90;;;;;;5087337;28;20405;-71
2023/07/24 10:50:46;;;;;;;9.00;6.03;;;23.70;99.90;;;;;;5087963;28;20760;-72
2023/07/24 10:53:15;;;;;;;9.98;6.00;;;23.50;99.90;;;;;;5087757;28;20767;-71
2023/07/24 10:55:45;;;;;;;11.80;6.70;;;23.30;99.90;;;;;;5087711;28;20455;-72
2023/07/24 10:58:13;;;;;;;11.80;6.80;;;23.40;99.90;;;;;;5088007;28;20414;-72
2023/07/24 11:00:43;;;;;;;12.05;6.53;;;23.80;99.90;;;;;;5087840;28;20456;-72
2023/07/24 11:03:13;;;;;;;9.50;6.15;;;23.80;99.90;;;;;;5078169;28;20402;-72
2023/07/24 11:05:43;;;;;;;11.13;6.80;;;23.70;99.90;;;;;;5087579;28;20727;-72
2023/07/24 11:08:14;;;;;;;6.72;3.55;;;23.50;99.90;;;;;;5088131;28;20401;-72
2023/07/24 11:10:46;;;;;;;6.03;2.22;;;23.20;99.90;;;;;;5086755;28;20435;-71
2023/07/24 11:13:11;;;;;;;5.50;2.10;;;22.90;99.90;;;;;;5087898;28;20439;-71
2023/07/24 11:15:37;;;;;;;4.60;2.10;;;22.50;99.90;;;;;;5087263;28;20394;-71
2023/07/24 11:18:04;;;;;;;4.83;2.30;;;22.10;99.90;;;;;;5087499;28;20497;-71
2023/07/24 11:20:29;;;;;;;5.60;2.80;;;21.80;99.90;;;;;;5087090;28;20422;-72
2023/07/24 11:22:58;;;;;;;6.15;2.83;;;21.50;99.90;;;;;;5087439;28;20460;-71
2023/07/24 11:25:24;;;;;;;5.40;2.45;;;21.40;99.90;;;;;;5087586;28;20497;-72
2023/07/24 11:27:49;;;;;;;4.55;2.60;;;21.50;99.90;;;;;;5081907;28;20401;-72
2023/07/24 11:30:20;;;;;;;5.80;2.73;;;21.50;99.90;;;;;;5086308;28;20402;-72
2023/07/24 11:32:46;;;;;;;4.87;2.37;;;21.60;99.90;;;;;;5079933;28;20412;-72
2023/07/24 11:35:12;;;;;;;7.57;2.85;;;21.60;99.90;;;;;;5084758;28;20438;-72
2023/07/24 11:37:38;;;;;;;7.85;2.90;;;21.60;99.90;;;;;;5082567;28;20404;-71
2023/07/24 11:40:09;;;;;;;6.70;2.97;;;21.50;99.90;;;;;;5085633;28;20506;-72
2023/07/24 11:42:46;;;;;;;4.50;2.55;;;21.50;99.90;;;;;;5086614;28;20410;-72
2023/07/24 11:45:12;;;;;;;5.10;3.20;;;21.40;99.90;;;;;;5087518;28;20399;-72
2023/07/24 11:47:45;;;;;;;4.97;4.03;;;21.40;99.90;;;;;;5087384;28;20811;-70
2023/07/24 11:50:11;;;;;;;7.13;4.50;;;21.30;99.90;;;;;;5058818;28;20412;-71
2023/07/24 11:52:43;;;;;;;6.80;4.17;;;21.30;99.90;;;;;;5082011;28;20753;-71
2023/07/24 11:55:10;;;;;;;6.38;3.95;;;21.30;99.90;;;;;;5077872;28;20501;-71
2023/07/24 11:57:36;;;;;;;5.35;3.38;;;21.40;99.90;;;;;;5086607;28;20413;-71
2023/07/24 12:00:03;;;;;;;5.37;3.07;;;21.50;99.90;;;;;;5086795;28;20414;-71
2023/07/24 12:02:29;;;;;;;5.00;3.15;;;21.60;99.90;;;;;;5090300;28;20513;-72
2023/07/24 12:04:57;;;;;;;6.22;2.97;;;21.50;99.90;;;;;;5090773;28;20833;-71
2023/07/24 12:07:32;;;;;;;6.63;3.50;;;21.50;99.90;;;;;;5089132;28;20441;-72
2023/07/24 12:09:59;;;;;;;5.93;3.10;;;21.50;99.90;;;;;;5090399;28;20410;-71
2023/07/24 12:12:24;;;;;;;7.00;3.22;;;21.50;99.90;;;;;;5090782;28;20402;-72
2023/07/24 12:14:50;;;;;;;7.47;3.50;;;21.60;99.90;;;;;;5089964;28;20410;-71
2023/07/24 12:17:19;;;;;;;5.97;3.70;;;21.70;99.90;;;;;;5089980;28;20489;-72
2023/07/24 12:19:45;;;;;;;6.88;3.63;;;21.80;99.90;;;;;;5089497;28;20406;-72
2023/07/24 12:22:11;;;;;;;7.93;4.28;;;21.80;99.90;;;;;;5090239;28;20471;-71
2023/07/24 12:24:36;;;;;;;6.40;3.80;;;21.90;99.90;;;;;;5090126;28;20398;-72
2023/07/24 12:27:02;;;;;;;6.70;3.10;;;22.10;99.90;;;;;;5089155;28;20410;-72
2023/07/24 12:29:28;;;;;;;6.87;3.40;;;22.40;99.90;;;;;;5085278;28;20398;-72
2023/07/24 12:31:53;;;;;;;6.27;3.60;;;23.00;99.90;;;;;;5089571;28;20478;-72
2023/07/24 12:34:19;;;;;;;6.50;3.60;;;23.40;99.90;;;;;;5089572;28;20493;-72